sensor_id;sensor_type;location;lat;lon;timestamp;temperature;humidity
8214;DHT22;4148;47.974;7.824;2024-01-30T00:02:20;6.10;99.90
8214;DHT22;4148;47.974;7.824;2024-01-30T00:04:48;6.10;99.90
8214;DHT22;4148;47.974;7.824;2024-01-30T00:07:16;6.00;1.00
8214;DHT22;4148;47.974;7.824;2024-01-30T00:09:47;5.90;1.00
8214;DHT22;4148;47.974;7.824;2024-01-30T00:12:16;5.90;1.00
8214;DHT22;4148;47.974;7.824;2024-01-30T00:14:44;6.00;1.00
8214;DHT22;4148;47.974;7.824;2024-01-30T00:17:12;5.90;1.00
8214;DHT22;4148;47.974;7.824;2024-01-30T00:19:40;5.80;1.00
8214;DHT22;4148;47.974;7.824;2024-01-30T00:22:08;5.80;1.00
8214;DHT22;4148;47.974;7.824;2024-01-30T00:24:36;5.80;1.00
8214;DHT22;4148;47.974;7.824;2024-01-30T00:27:05;5.70;1.00
8214;DHT22;4148;47.974;7.824;2024-01-30T00:29:33;5.70;1.00
8214;DHT22;4148;47.974;7.824;2024-01-30T00:32:01;5.60;1.00
8214;DHT22;4148;47.974;7.824;2024-01-30T00:34:29;5.60;1.00
8214;DHT22;4148;47.974;7.824;2024-01-30T00:36:57;5.50;1.00
8214;DHT22;4148;47.974;7.824;2024-01-30T00:39:25;5.50;1.00
8214;DHT22;4148;47.974;7.824;2024-01-30T00:41:53;5.60;1.00
8214;DHT22;4148;47.974;7.824;2024-01-30T00:44:22;5.70;1.00
8214;DHT22;4148;47.974;7.824;2024-01-30T00:46:50;5.70;1.00
8214;DHT22;4148;47.974;7.824;2024-01-30T00:49:18;5.70;1.00
8214;DHT22;4148;47.974;7.824;2024-01-30T00:51:46;5.80;1.00
8214;DHT22;4148;47.974;7.824;2024-01-30T00:54:14;5.90;1.00
8214;DHT22;4148;47.974;7.824;2024-01-30T00:56:42;5.80;1.00
8214;DHT22;4148;47.974;7.824;2024-01-30T00:59:11;5.80;1.00
8214;DHT22;4148;47.974;7.824;2024-01-30T01:01:40;5.90;1.00
8214;DHT22;4148;47.974;7.824;2024-01-30T01:04:08;5.90;1.00
8214;DHT22;4148;47.974;7.824;2024-01-30T01:06:36;5.90;1.00
8214;DHT22;4148;47.974;7.824;2024-01-30T01:09:04;5.90;1.00
8214;DHT22;4148;47.974;7.824;2024-01-30T01:11:32;6.00;99.90
8214;DHT22;4148;47.974;7.824;2024-01-30T01:13:59;6.10;99.90
8214;DHT22;4148;47.974;7.824;2024-01-30T01:16:27;6.10;99.90
8214;DHT22;4148;47.974;7.824;2024-01-30T01:18:57;6.10;99.90
8214;DHT22;4148;47.974;7.824;2024-01-30T01:21:24;6.10;99.90
8214;DHT22;4148;47.974;7.824;2024-01-30T01:23:52;6.10;99.90
8214;DHT22;4148;47.974;7.824;2024-01-30T01:26:20;6.10;99.90
8214;DHT22;4148;47.974;7.824;2024-01-30T01:28:49;6.10;99.90
8214;DHT22;4148;47.974;7.824;2024-01-30T01:31:16;6.10;99.90
8214;DHT22;4148;47.974;7.824;2024-01-30T01:33:45;6.10;99.90
8214;DHT22;4148;47.974;7.824;2024-01-30T01:36:14;6.10;99.90
8214;DHT22;4148;47.974;7.824;2024-01-30T01:38:42;6.20;99.90
8214;DHT22;4148;47.974;7.824;2024-01-30T01:41:10;6.20;99.90
8214;DHT22;4148;47.974;7.824;2024-01-30T01:43:38;6.10;99.90
8214;DHT22;4148;47.974;7.824;2024-01-30T01:46:06;6.20;99.90
8214;DHT22;4148;47.974;7.824;2024-01-30T01:48:34;6.10;99.90
8214;DHT22;4148;47.974;7.824;2024-01-30T01:51:03;6.20;99.90
8214;DHT22;4148;47.974;7.824;2024-01-30T01:53:33;6.20;99.90
8214;DHT22;4148;47.974;7.824;2024-01-30T01:56:01;6.20;99.90
8214;DHT22;4148;47.974;7.824;2024-01-30T01:58:29;6.10;99.90
8214;DHT22;4148;47.974;7.824;2024-01-30T02:00:58;6.00;99.90
8214;DHT22;4148;47.974;7.824;2024-01-30T02:03:27;5.90;99.90
8214;DHT22;4148;47.974;7.824;2024-01-30T02:05:55;6.00;99.90
8214;DHT22;4148;47.974;7.824;2024-01-30T02:08:24;6.00;99.90
8214;DHT22;4148;47.974;7.824;2024-01-30T02:10:53;6.10;99.90
8214;DHT22;4148;47.974;7.824;2024-01-30T02:13:21;6.10;99.90
8214;DHT22;4148;47.974;7.824;2024-01-30T02:15:50;6.00;99.90
8214;DHT22;4148;47.974;7.824;2024-01-30T02:18:20;5.90;99.90
8214;DHT22;4148;47.974;7.824;2024-01-30T02:20:48;5.80;99.90
8214;DHT22;4148;47.974;7.824;2024-01-30T02:23:18;5.80;99.90
8214;DHT22;4148;47.974;7.824;2024-01-30T02:25:47;5.90;99.90
8214;DHT22;4148;47.974;7.824;2024-01-30T02:28:15;5.80;1.00
8214;DHT22;4148;47.974;7.824;2024-01-30T02:30:43;5.80;1.00
8214;DHT22;4148;47.974;7.824;2024-01-30T02:33:11;5.80;1.00
8214;DHT22;4148;47.974;7.824;2024-01-30T02:35:39;5.80;1.00
8214;DHT22;4148;47.974;7.824;2024-01-30T02:38:07;5.70;1.00
8214;DHT22;4148;47.974;7.824;2024-01-30T02:40:36;5.60;1.00
8214;DHT22;4148;47.974;7.824;2024-01-30T02:43:04;5.60;1.00
8214;DHT22;4148;47.974;7.824;2024-01-30T02:45:32;5.50;1.00
8214;DHT22;4148;47.974;7.824;2024-01-30T02:48:00;5.40;1.00
8214;DHT22;4148;47.974;7.824;2024-01-30T02:50:28;5.40;1.00
8214;DHT22;4148;47.974;7.824;2024-01-30T02:52:56;5.40;1.00
8214;DHT22;4148;47.974;7.824;2024-01-30T02:55:24;5.40;1.00
8214;DHT22;4148;47.974;7.824;2024-01-30T02:57:53;5.40;1.00
8214;DHT22;4148;47.974;7.824;2024-01-30T03:00:21;5.40;1.00
8214;DHT22;4148;47.974;7.824;2024-01-30T03:02:49;5.30;1.00
8214;DHT22;4148;47.974;7.824;2024-01-30T03:05:17;5.30;1.00
8214;DHT22;4148;47.974;7.824;2024-01-30T03:07:45;5.10;24.20
8214;DHT22;4148;47.974;7.824;2024-01-30T03:10:13;5.00;37.20
8214;DHT22;4148;47.974;7.824;2024-01-30T03:12:41;5.00;1.00
8214;DHT22;4148;47.974;7.824;2024-01-30T03:15:10;5.00;2.40
8214;DHT22;4148;47.974;7.824;2024-01-30T03:17:38;5.00;1.00
8214;DHT22;4148;47.974;7.824;2024-01-30T03:20:07;5.20;1.00
8214;DHT22;4148;47.974;7.824;2024-01-30T03:22:35;5.30;1.00
8214;DHT22;4148;47.974;7.824;2024-01-30T03:25:04;5.40;1.00
8214;DHT22;4148;47.974;7.824;2024-01-30T03:27:33;5.50;1.00
8214;DHT22;4148;47.974;7.824;2024-01-30T03:30:00;5.50;1.00
8214;DHT22;4148;47.974;7.824;2024-01-30T03:32:30;5.40;1.00
8214;DHT22;4148;47.974;7.824;2024-01-30T03:34:58;5.40;1.00
8214;DHT22;4148;47.974;7.824;2024-01-30T03:37:26;5.50;1.00
8214;DHT22;4148;47.974;7.824;2024-01-30T03:39:54;5.50;1.00
8214;DHT22;4148;47.974;7.824;2024-01-30T03:42:22;5.50;1.00
8214;DHT22;4148;47.974;7.824;2024-01-30T03:44:50;5.60;1.00
8214;DHT22;4148;47.974;7.824;2024-01-30T03:47:20;5.60;1.00
8214;DHT22;4148;47.974;7.824;2024-01-30T03:49:49;5.60;1.00
8214;DHT22;4148;47.974;7.824;2024-01-30T03:52:17;5.50;1.00
8214;DHT22;4148;47.974;7.824;2024-01-30T03:54:45;5.50;1.00
8214;DHT22;4148;47.974;7.824;2024-01-30T03:57:13;5.50;1.00
8214;DHT22;4148;47.974;7.824;2024-01-30T03:59:41;5.50;1.00
8214;DHT22;4148;47.974;7.824;2024-01-30T04:02:10;5.50;1.00
8214;DHT22;4148;47.974;7.824;2024-01-30T04:04:38;5.50;1.00
8214;DHT22;4148;47.974;7.824;2024-01-30T04:07:08;5.50;1.00
8214;DHT22;4148;47.974;7.824;2024-01-30T04:09:36;5.50;1.00
8214;DHT22;4148;47.974;7.824;2024-01-30T04:12:04;5.50;1.00
8214;DHT22;4148;47.974;7.824;2024-01-30T04:14:32;5.50;1.00
8214;DHT22;4148;47.974;7.824;2024-01-30T04:17:00;5.60;1.00
8214;DHT22;4148;47.974;7.824;2024-01-30T04:19:27;5.80;1.00
8214;DHT22;4148;47.974;7.824;2024-01-30T04:21:55;5.80;1.00
8214;DHT22;4148;47.974;7.824;2024-01-30T04:24:26;5.90;1.00
8214;DHT22;4148;47.974;7.824;2024-01-30T04:26:53;6.10;1.00
8214;DHT22;4148;47.974;7.824;2024-01-30T04:29:21;6.40;1.00
8214;DHT22;4148;47.974;7.824;2024-01-30T04:31:49;6.70;1.00
8214;DHT22;4148;47.974;7.824;2024-01-30T04:34:17;6.90;99.90
8214;DHT22;4148;47.974;7.824;2024-01-30T04:36:45;7.10;99.90
8214;DHT22;4148;47.974;7.824;2024-01-30T04:39:13;7.20;99.90
8214;DHT22;4148;47.974;7.824;2024-01-30T04:41:42;7.30;99.90
8214;DHT22;4148;47.974;7.824;2024-01-30T04:44:10;7.40;99.90
8214;DHT22;4148;47.974;7.824;2024-01-30T04:46:38;7.50;99.90
8214;DHT22;4148;47.974;7.824;2024-01-30T04:49:06;7.50;99.90
8214;DHT22;4148;47.974;7.824;2024-01-30T04:51:34;7.50;99.90
8214;DHT22;4148;47.974;7.824;2024-01-30T04:54:02;7.70;99.90
8214;DHT22;4148;47.974;7.824;2024-01-30T04:56:30;7.80;99.90
8214;DHT22;4148;47.974;7.824;2024-01-30T04:58:59;7.80;99.90
8214;DHT22;4148;47.974;7.824;2024-01-30T05:01:27;8.00;99.90
8214;DHT22;4148;47.974;7.824;2024-01-30T05:03:55;8.20;99.90
8214;DHT22;4148;47.974;7.824;2024-01-30T05:06:26;8.40;99.90
8214;DHT22;4148;47.974;7.824;2024-01-30T05:08:54;8.40;99.90
8214;DHT22;4148;47.974;7.824;2024-01-30T05:11:22;8.40;99.90
8214;DHT22;4148;47.974;7.824;2024-01-30T05:13:50;8.40;99.90
8214;DHT22;4148;47.974;7.824;2024-01-30T05:16:19;8.30;99.90
8214;DHT22;4148;47.974;7.824;2024-01-30T05:18:47;8.30;99.90
8214;DHT22;4148;47.974;7.824;2024-01-30T05:21:15;8.30;99.90
8214;DHT22;4148;47.974;7.824;2024-01-30T05:23:43;8.30;99.90
8214;DHT22;4148;47.974;7.824;2024-01-30T05:26:11;8.30;99.90
8214;DHT22;4148;47.974;7.824;2024-01-30T05:28:39;8.30;99.90
8214;DHT22;4148;47.974;7.824;2024-01-30T05:31:07;8.20;99.90
8214;DHT22;4148;47.974;7.824;2024-01-30T05:33:37;8.10;99.90
8214;DHT22;4148;47.974;7.824;2024-01-30T05:36:05;8.00;99.90
8214;DHT22;4148;47.974;7.824;2024-01-30T05:38:33;8.10;99.90
8214;DHT22;4148;47.974;7.824;2024-01-30T05:41:01;8.10;99.90
8214;DHT22;4148;47.974;7.824;2024-01-30T05:43:29;8.00;99.90
8214;DHT22;4148;47.974;7.824;2024-01-30T05:45:57;7.90;99.90
8214;DHT22;4148;47.974;7.824;2024-01-30T05:48:25;7.90;99.90
8214;DHT22;4148;47.974;7.824;2024-01-30T05:50:54;7.90;99.90
8214;DHT22;4148;47.974;7.824;2024-01-30T05:53:23;7.80;99.90
8214;DHT22;4148;47.974;7.824;2024-01-30T05:55:51;7.90;99.90
8214;DHT22;4148;47.974;7.824;2024-01-30T05:58:19;7.70;99.90
8214;DHT22;4148;47.974;7.824;2024-01-30T06:00:47;7.60;99.90
8214;DHT22;4148;47.974;7.824;2024-01-30T06:03:15;7.60;99.90
8214;DHT22;4148;47.974;7.824;2024-01-30T06:05:43;7.50;99.90
8214;DHT22;4148;47.974;7.824;2024-01-30T06:08:12;7.40;99.90
8214;DHT22;4148;47.974;7.824;2024-01-30T06:10:40;7.40;99.90
8214;DHT22;4148;47.974;7.824;2024-01-30T06:13:08;7.40;99.90
8214;DHT22;4148;47.974;7.824;2024-01-30T06:15:36;7.50;99.90
8214;DHT22;4148;47.974;7.824;2024-01-30T06:18:04;7.70;99.90
8214;DHT22;4148;47.974;7.824;2024-01-30T06:20:32;7.80;99.90
8214;DHT22;4148;47.974;7.824;2024-01-30T06:23:00;7.80;99.90
8214;DHT22;4148;47.974;7.824;2024-01-30T06:25:29;7.60;99.90
8214;DHT22;4148;47.974;7.824;2024-01-30T06:27:57;7.50;99.90
8214;DHT22;4148;47.974;7.824;2024-01-30T06:30:25;7.30;99.90
8214;DHT22;4148;47.974;7.824;2024-01-30T06:32:53;7.30;99.90
8214;DHT22;4148;47.974;7.824;2024-01-30T06:35:21;7.20;99.90
8214;DHT22;4148;47.974;7.824;2024-01-30T06:37:49;7.20;99.90
8214;DHT22;4148;47.974;7.824;2024-01-30T06:40:17;7.30;99.90
8214;DHT22;4148;47.974;7.824;2024-01-30T06:42:46;7.50;99.90
8214;DHT22;4148;47.974;7.824;2024-01-30T06:45:14;7.80;99.90
8214;DHT22;4148;47.974;7.824;2024-01-30T06:47:42;8.10;99.90
8214;DHT22;4148;47.974;7.824;2024-01-30T06:50:10;8.20;99.90
8214;DHT22;4148;47.974;7.824;2024-01-30T06:52:38;8.20;99.90
8214;DHT22;4148;47.974;7.824;2024-01-30T06:55:06;8.30;99.90
8214;DHT22;4148;47.974;7.824;2024-01-30T06:57:35;8.40;99.90
8214;DHT22;4148;47.974;7.824;2024-01-30T07:00:05;8.50;99.90
8214;DHT22;4148;47.974;7.824;2024-01-30T07:02:33;8.40;99.90
8214;DHT22;4148;47.974;7.824;2024-01-30T07:05:01;8.40;99.90
8214;DHT22;4148;47.974;7.824;2024-01-30T07:07:29;8.50;99.90
8214;DHT22;4148;47.974;7.824;2024-01-30T07:09:57;8.60;99.90
8214;DHT22;4148;47.974;7.824;2024-01-30T07:12:25;8.70;99.90
8214;DHT22;4148;47.974;7.824;2024-01-30T07:14:53;8.70;99.90
8214;DHT22;4148;47.974;7.824;2024-01-30T07:17:24;8.70;99.90
8214;DHT22;4148;47.974;7.824;2024-01-30T07:19:52;8.70;99.90
8214;DHT22;4148;47.974;7.824;2024-01-30T07:22:20;8.80;99.90
8214;DHT22;4148;47.974;7.824;2024-01-30T07:24:48;8.90;99.90
8214;DHT22;4148;47.974;7.824;2024-01-30T07:27:17;8.80;99.90
8214;DHT22;4148;47.974;7.824;2024-01-30T07:29:45;8.80;99.90
8214;DHT22;4148;47.974;7.824;2024-01-30T07:32:13;8.90;99.90
8214;DHT22;4148;47.974;7.824;2024-01-30T07:34:42;8.80;99.90
8214;DHT22;4148;47.974;7.824;2024-01-30T07:37:28;8.80;99.90
8214;DHT22;4148;47.974;7.824;2024-01-30T07:39:56;8.80;99.90
8214;DHT22;4148;47.974;7.824;2024-01-30T07:42:24;8.80;99.90
8214;DHT22;4148;47.974;7.824;2024-01-30T07:44:52;8.80;99.90
8214;DHT22;4148;47.974;7.824;2024-01-30T07:47:20;8.80;99.90
8214;DHT22;4148;47.974;7.824;2024-01-30T07:49:49;9.00;99.90
8214;DHT22;4148;47.974;7.824;2024-01-30T07:52:18;9.20;99.90
8214;DHT22;4148;47.974;7.824;2024-01-30T07:54:46;9.40;99.90
8214;DHT22;4148;47.974;7.824;2024-01-30T07:57:13;9.40;99.90
8214;DHT22;4148;47.974;7.824;2024-01-30T07:59:42;9.40;99.90
8214;DHT22;4148;47.974;7.824;2024-01-30T08:02:11;9.50;99.90
8214;DHT22;4148;47.974;7.824;2024-01-30T08:04:39;9.60;99.90
8214;DHT22;4148;47.974;7.824;2024-01-30T08:07:08;9.60;99.90
8214;DHT22;4148;47.974;7.824;2024-01-30T08:09:37;9.70;99.90
8214;DHT22;4148;47.974;7.824;2024-01-30T08:12:05;9.70;99.90
8214;DHT22;4148;47.974;7.824;2024-01-30T08:14:33;9.80;99.90
8214;DHT22;4148;47.974;7.824;2024-01-30T08:17:00;9.90;99.90
8214;DHT22;4148;47.974;7.824;2024-01-30T08:19:28;10.00;99.90
8214;DHT22;4148;47.974;7.824;2024-01-30T08:21:56;10.10;99.90
8214;DHT22;4148;47.974;7.824;2024-01-30T08:24:25;10.10;99.90
8214;DHT22;4148;47.974;7.824;2024-01-30T08:26:53;10.20;99.90
8214;DHT22;4148;47.974;7.824;2024-01-30T08:29:21;10.30;99.90
8214;DHT22;4148;47.974;7.824;2024-01-30T08:31:49;10.40;99.90
8214;DHT22;4148;47.974;7.824;2024-01-30T08:34:17;10.50;99.90
8214;DHT22;4148;47.974;7.824;2024-01-30T08:36:45;10.60;99.90
8214;DHT22;4148;47.974;7.824;2024-01-30T08:39:13;10.60;99.90
8214;DHT22;4148;47.974;7.824;2024-01-30T08:41:42;10.50;99.90
8214;DHT22;4148;47.974;7.824;2024-01-30T08:44:10;10.50;99.90
8214;DHT22;4148;47.974;7.824;2024-01-30T08:46:38;10.60;99.90
8214;DHT22;4148;47.974;7.824;2024-01-30T08:49:06;10.70;99.90
8214;DHT22;4148;47.974;7.824;2024-01-30T08:51:35;10.80;99.90
8214;DHT22;4148;47.974;7.824;2024-01-30T08:54:03;10.90;99.90
8214;DHT22;4148;47.974;7.824;2024-01-30T08:56:31;10.90;99.90
8214;DHT22;4148;47.974;7.824;2024-01-30T08:59:00;10.90;99.90
8214;DHT22;4148;47.974;7.824;2024-01-30T09:01:28;10.90;99.90
8214;DHT22;4148;47.974;7.824;2024-01-30T09:03:56;10.90;99.90
8214;DHT22;4148;47.974;7.824;2024-01-30T09:06:24;11.00;99.90
8214;DHT22;4148;47.974;7.824;2024-01-30T09:08:54;10.90;99.90
8214;DHT22;4148;47.974;7.824;2024-01-30T09:11:24;10.90;99.90
8214;DHT22;4148;47.974;7.824;2024-01-30T09:13:52;11.00;99.90
8214;DHT22;4148;47.974;7.824;2024-01-30T09:16:21;11.10;99.90
8214;DHT22;4148;47.974;7.824;2024-01-30T09:18:49;11.10;99.90
8214;DHT22;4148;47.974;7.824;2024-01-30T09:21:17;11.10;99.90
8214;DHT22;4148;47.974;7.824;2024-01-30T09:23:45;11.10;99.90
8214;DHT22;4148;47.974;7.824;2024-01-30T09:26:13;11.20;99.90
8214;DHT22;4148;47.974;7.824;2024-01-30T09:28:41;11.20;99.90
8214;DHT22;4148;47.974;7.824;2024-01-30T09:31:10;11.20;99.90
8214;DHT22;4148;47.974;7.824;2024-01-30T09:33:39;11.30;99.90
8214;DHT22;4148;47.974;7.824;2024-01-30T09:36:08;11.30;99.90
8214;DHT22;4148;47.974;7.824;2024-01-30T09:38:36;11.30;99.90
8214;DHT22;4148;47.974;7.824;2024-01-30T09:41:08;11.30;99.90
8214;DHT22;4148;47.974;7.824;2024-01-30T09:43:38;11.40;99.90
8214;DHT22;4148;47.974;7.824;2024-01-30T09:46:09;11.40;99.90
8214;DHT22;4148;47.974;7.824;2024-01-30T09:48:41;11.40;99.90
8214;DHT22;4148;47.974;7.824;2024-01-30T09:51:09;11.40;99.90
8214;DHT22;4148;47.974;7.824;2024-01-30T09:53:39;11.40;99.90
8214;DHT22;4148;47.974;7.824;2024-01-30T09:56:08;11.40;99.90
8214;DHT22;4148;47.974;7.824;2024-01-30T09:58:35;11.40;99.90
8214;DHT22;4148;47.974;7.824;2024-01-30T10:01:03;11.50;99.90
8214;DHT22;4148;47.974;7.824;2024-01-30T10:03:31;11.50;99.90
8214;DHT22;4148;47.974;7.824;2024-01-30T10:06:01;11.50;99.90
8214;DHT22;4148;47.974;7.824;2024-01-30T10:08:29;11.50;99.90
8214;DHT22;4148;47.974;7.824;2024-01-30T10:10:57;11.60;99.90
8214;DHT22;4148;47.974;7.824;2024-01-30T10:13:25;11.70;99.90
8214;DHT22;4148;47.974;7.824;2024-01-30T10:15:53;11.80;99.90
8214;DHT22;4148;47.974;7.824;2024-01-30T10:18:22;11.80;99.90
8214;DHT22;4148;47.974;7.824;2024-01-30T10:20:51;11.80;99.90
8214;DHT22;4148;47.974;7.824;2024-01-30T10:23:23;11.90;99.90
8214;DHT22;4148;47.974;7.824;2024-01-30T10:25:52;11.90;99.90
8214;DHT22;4148;47.974;7.824;2024-01-30T10:28:20;12.00;99.90
8214;DHT22;4148;47.974;7.824;2024-01-30T10:30:57;12.10;99.90
8214;DHT22;4148;47.974;7.824;2024-01-30T10:33:30;12.30;99.90
8214;DHT22;4148;47.974;7.824;2024-01-30T10:36:01;12.50;99.90
8214;DHT22;4148;47.974;7.824;2024-01-30T10:38:32;12.70;99.90
8214;DHT22;4148;47.974;7.824;2024-01-30T10:41:01;12.70;99.90
8214;DHT22;4148;47.974;7.824;2024-01-30T10:43:31;12.80;99.90
8214;DHT22;4148;47.974;7.824;2024-01-30T10:46:08;12.80;99.90
8214;DHT22;4148;47.974;7.824;2024-01-30T10:48:43;12.80;99.90
8214;DHT22;4148;47.974;7.824;2024-01-30T10:51:11;12.90;99.90
8214;DHT22;4148;47.974;7.824;2024-01-30T10:53:44;13.10;99.90
8214;DHT22;4148;47.974;7.824;2024-01-30T10:56:16;13.10;99.90
8214;DHT22;4148;47.974;7.824;2024-01-30T10:58:44;13.00;99.90
8214;DHT22;4148;47.974;7.824;2024-01-30T11:01:13;13.10;99.90
8214;DHT22;4148;47.974;7.824;2024-01-30T11:03:42;13.10;99.90
8214;DHT22;4148;47.974;7.824;2024-01-30T11:06:11;13.20;99.90
8214;DHT22;4148;47.974;7.824;2024-01-30T11:08:42;13.50;99.90
8214;DHT22;4148;47.974;7.824;2024-01-30T11:13:42;14.70;99.90
8214;DHT22;4148;47.974;7.824;2024-01-30T11:16:11;15.10;99.90
8214;DHT22;4148;47.974;7.824;2024-01-30T11:18:39;15.10;99.90
8214;DHT22;4148;47.974;7.824;2024-01-30T11:21:07;15.20;99.90
8214;DHT22;4148;47.974;7.824;2024-01-30T11:23:35;15.00;99.90
8214;DHT22;4148;47.974;7.824;2024-01-30T11:26:05;14.90;99.90
8214;DHT22;4148;47.974;7.824;2024-01-30T11:28:33;14.80;99.90
8214;DHT22;4148;47.974;7.824;2024-01-30T11:31:05;14.60;99.90
8214;DHT22;4148;47.974;7.824;2024-01-30T11:33:35;14.50;99.90
8214;DHT22;4148;47.974;7.824;2024-01-30T11:36:04;14.40;99.90
8214;DHT22;4148;47.974;7.824;2024-01-30T11:38:33;14.40;99.90
8214;DHT22;4148;47.974;7.824;2024-01-30T11:41:02;14.30;99.90
8214;DHT22;4148;47.974;7.824;2024-01-30T11:43:32;14.30;99.90
8214;DHT22;4148;47.974;7.824;2024-01-30T11:46:01;14.30;99.90
8214;DHT22;4148;47.974;7.824;2024-01-30T11:48:29;14.30;99.90
8214;DHT22;4148;47.974;7.824;2024-01-30T11:50:58;14.40;99.90
8214;DHT22;4148;47.974;7.824;2024-01-30T11:53:25;14.40;99.90
8214;DHT22;4148;47.974;7.824;2024-01-30T11:55:53;14.40;99.90
8214;DHT22;4148;47.974;7.824;2024-01-30T11:58:24;14.40;99.90
8214;DHT22;4148;47.974;7.824;2024-01-30T12:00:54;14.40;99.90
8214;DHT22;4148;47.974;7.824;2024-01-30T12:03:23;14.50;99.90
8214;DHT22;4148;47.974;7.824;2024-01-30T12:06:00;14.40;99.90
8214;DHT22;4148;47.974;7.824;2024-01-30T12:08:30;14.60;99.90
8214;DHT22;4148;47.974;7.824;2024-01-30T12:10:58;14.60;99.90
8214;DHT22;4148;47.974;7.824;2024-01-30T12:13:28;14.60;99.90
8214;DHT22;4148;47.974;7.824;2024-01-30T12:16:00;14.70;99.90
8214;DHT22;4148;47.974;7.824;2024-01-30T12:18:29;14.80;99.90
8214;DHT22;4148;47.974;7.824;2024-01-30T12:20:57;14.70;99.90
8214;DHT22;4148;47.974;7.824;2024-01-30T12:23:27;14.50;99.90
8214;DHT22;4148;47.974;7.824;2024-01-30T12:25:55;14.50;99.90
8214;DHT22;4148;47.974;7.824;2024-01-30T12:28:23;14.50;99.90
8214;DHT22;4148;47.974;7.824;2024-01-30T12:30:55;14.50;99.90
8214;DHT22;4148;47.974;7.824;2024-01-30T12:33:26;14.50;99.90
8214;DHT22;4148;47.974;7.824;2024-01-30T12:35:55;14.40;99.90
8214;DHT22;4148;47.974;7.824;2024-01-30T12:38:29;14.30;99.90
8214;DHT22;4148;47.974;7.824;2024-01-30T12:40:57;14.20;99.90
8214;DHT22;4148;47.974;7.824;2024-01-30T12:43:25;14.10;99.90
8214;DHT22;4148;47.974;7.824;2024-01-30T12:46:04;14.00;99.90
8214;DHT22;4148;47.974;7.824;2024-01-30T12:48:37;13.90;99.90
8214;DHT22;4148;47.974;7.824;2024-01-30T12:51:05;14.00;99.90
8214;DHT22;4148;47.974;7.824;2024-01-30T12:53:33;13.90;99.90
8214;DHT22;4148;47.974;7.824;2024-01-30T12:56:01;13.80;99.90
8214;DHT22;4148;47.974;7.824;2024-01-30T12:58:29;13.80;99.90
8214;DHT22;4148;47.974;7.824;2024-01-30T13:00:57;13.90;99.90
8214;DHT22;4148;47.974;7.824;2024-01-30T13:03:25;13.90;99.90
8214;DHT22;4148;47.974;7.824;2024-01-30T13:05:55;13.80;99.90
8214;DHT22;4148;47.974;7.824;2024-01-30T13:08:23;13.90;99.90
8214;DHT22;4148;47.974;7.824;2024-01-30T13:10:51;14.00;99.90
8214;DHT22;4148;47.974;7.824;2024-01-30T13:13:18;14.00;99.90
8214;DHT22;4148;47.974;7.824;2024-01-30T13:15:47;14.10;99.90
8214;DHT22;4148;47.974;7.824;2024-01-30T13:18:15;14.10;99.90
8214;DHT22;4148;47.974;7.824;2024-01-30T13:20:43;14.10;99.90
8214;DHT22;4148;47.974;7.824;2024-01-30T13:23:12;14.00;99.90
8214;DHT22;4148;47.974;7.824;2024-01-30T13:25:40;14.00;99.90
8214;DHT22;4148;47.974;7.824;2024-01-30T13:28:08;14.00;99.90
8214;DHT22;4148;47.974;7.824;2024-01-30T13:30:36;14.00;99.90
8214;DHT22;4148;47.974;7.824;2024-01-30T13:33:04;13.90;99.90
8214;DHT22;4148;47.974;7.824;2024-01-30T13:35:33;13.80;99.90
8214;DHT22;4148;47.974;7.824;2024-01-30T13:38:01;13.80;99.90
8214;DHT22;4148;47.974;7.824;2024-01-30T13:40:30;13.80;99.90
8214;DHT22;4148;47.974;7.824;2024-01-30T13:42:58;13.80;99.90
8214;DHT22;4148;47.974;7.824;2024-01-30T13:45:26;13.80;99.90
8214;DHT22;4148;47.974;7.824;2024-01-30T13:47:54;13.80;99.90
8214;DHT22;4148;47.974;7.824;2024-01-30T13:50:22;13.70;99.90
8214;DHT22;4148;47.974;7.824;2024-01-30T13:52:50;13.70;99.90
8214;DHT22;4148;47.974;7.824;2024-01-30T13:55:18;13.80;99.90
8214;DHT22;4148;47.974;7.824;2024-01-30T13:57:48;13.80;99.90
8214;DHT22;4148;47.974;7.824;2024-01-30T14:00:17;13.80;99.90
8214;DHT22;4148;47.974;7.824;2024-01-30T14:02:46;13.80;99.90
8214;DHT22;4148;47.974;7.824;2024-01-30T14:05:14;13.80;99.90
8214;DHT22;4148;47.974;7.824;2024-01-30T14:07:43;13.80;99.90
8214;DHT22;4148;47.974;7.824;2024-01-30T14:10:12;13.70;99.90
8214;DHT22;4148;47.974;7.824;2024-01-30T14:12:42;13.60;99.90
8214;DHT22;4148;47.974;7.824;2024-01-30T14:15:14;13.60;99.90
8214;DHT22;4148;47.974;7.824;2024-01-30T14:17:54;13.60;99.90
8214;DHT22;4148;47.974;7.824;2024-01-30T14:20:22;13.50;99.90
8214;DHT22;4148;47.974;7.824;2024-01-30T14:22:51;13.50;99.90
8214;DHT22;4148;47.974;7.824;2024-01-30T14:25:20;13.40;99.90
8214;DHT22;4148;47.974;7.824;2024-01-30T14:27:48;13.30;99.90
8214;DHT22;4148;47.974;7.824;2024-01-30T14:30:17;13.20;99.90
8214;DHT22;4148;47.974;7.824;2024-01-30T14:32:45;13.20;99.90
8214;DHT22;4148;47.974;7.824;2024-01-30T14:35:14;13.10;99.90
8214;DHT22;4148;47.974;7.824;2024-01-30T14:37:42;13.10;99.90
8214;DHT22;4148;47.974;7.824;2024-01-30T14:40:10;13.10;99.90
8214;DHT22;4148;47.974;7.824;2024-01-30T14:42:39;13.00;99.90
8214;DHT22;4148;47.974;7.824;2024-01-30T14:45:07;13.00;99.90
8214;DHT22;4148;47.974;7.824;2024-01-30T14:47:37;13.00;99.90
8214;DHT22;4148;47.974;7.824;2024-01-30T14:50:06;13.00;99.90
8214;DHT22;4148;47.974;7.824;2024-01-30T14:52:35;13.00;99.90
8214;DHT22;4148;47.974;7.824;2024-01-30T14:55:05;13.10;99.90
8214;DHT22;4148;47.974;7.824;2024-01-30T14:57:33;13.00;99.90
8214;DHT22;4148;47.974;7.824;2024-01-30T15:00:02;13.10;99.90
8214;DHT22;4148;47.974;7.824;2024-01-30T15:02:31;13.00;99.90
8214;DHT22;4148;47.974;7.824;2024-01-30T15:05:00;13.10;99.90
8214;DHT22;4148;47.974;7.824;2024-01-30T15:07:28;13.20;99.90
8214;DHT22;4148;47.974;7.824;2024-01-30T15:10:06;13.20;99.90
8214;DHT22;4148;47.974;7.824;2024-01-30T15:12:35;13.10;99.90
8214;DHT22;4148;47.974;7.824;2024-01-30T15:15:04;13.00;99.90
8214;DHT22;4148;47.974;7.824;2024-01-30T15:17:32;13.00;99.90
8214;DHT22;4148;47.974;7.824;2024-01-30T15:20:02;13.00;99.90
8214;DHT22;4148;47.974;7.824;2024-01-30T15:22:31;13.00;99.90
8214;DHT22;4148;47.974;7.824;2024-01-30T15:24:59;13.00;99.90
8214;DHT22;4148;47.974;7.824;2024-01-30T15:27:27;13.00;99.90
8214;DHT22;4148;47.974;7.824;2024-01-30T15:29:56;13.00;99.90
8214;DHT22;4148;47.974;7.824;2024-01-30T15:32:24;12.90;99.90
8214;DHT22;4148;47.974;7.824;2024-01-30T15:34:52;12.80;99.90
8214;DHT22;4148;47.974;7.824;2024-01-30T15:37:23;12.70;99.90
8214;DHT22;4148;47.974;7.824;2024-01-30T15:39:51;12.70;99.90
8214;DHT22;4148;47.974;7.824;2024-01-30T15:42:19;12.60;99.90
8214;DHT22;4148;47.974;7.824;2024-01-30T15:44:47;12.50;99.90
8214;DHT22;4148;47.974;7.824;2024-01-30T15:47:15;12.50;99.90
8214;DHT22;4148;47.974;7.824;2024-01-30T15:49:43;12.50;99.90
8214;DHT22;4148;47.974;7.824;2024-01-30T15:52:13;12.50;99.90
8214;DHT22;4148;47.974;7.824;2024-01-30T15:54:46;12.40;99.90
8214;DHT22;4148;47.974;7.824;2024-01-30T15:57:14;12.50;99.90
8214;DHT22;4148;47.974;7.824;2024-01-30T15:59:42;12.40;99.90
8214;DHT22;4148;47.974;7.824;2024-01-30T16:02:10;12.40;99.90
8214;DHT22;4148;47.974;7.824;2024-01-30T16:04:38;12.40;99.90
8214;DHT22;4148;47.974;7.824;2024-01-30T16:07:06;12.30;99.90
8214;DHT22;4148;47.974;7.824;2024-01-30T16:09:34;12.40;99.90
8214;DHT22;4148;47.974;7.824;2024-01-30T16:12:04;12.20;99.90
8214;DHT22;4148;47.974;7.824;2024-01-30T16:14:31;12.20;99.90
8214;DHT22;4148;47.974;7.824;2024-01-30T16:17:00;12.10;99.90
8214;DHT22;4148;47.974;7.824;2024-01-30T16:19:28;12.00;99.90
8214;DHT22;4148;47.974;7.824;2024-01-30T16:21:56;11.90;99.90
8214;DHT22;4148;47.974;7.824;2024-01-30T16:24:24;11.80;99.90